sensor_id;sensor_type;location;lat;lon;timestamp;temperature;humidity
47845;DHT22;33605;48.822;8.796;2023-03-01T00:00:39;3.70;29.60
47845;DHT22;33605;48.822;8.796;2023-03-01T00:03:04;3.70;29.60
47845;DHT22;33605;48.822;8.796;2023-03-01T00:05:30;3.70;29.60
47845;DHT22;33605;48.822;8.796;2023-03-01T00:07:56;3.70;29.60
47845;DHT22;33605;48.822;8.796;2023-03-01T00:10:22;3.60;29.60
47845;DHT22;33605;48.822;8.796;2023-03-01T00:12:47;3.60;29.60
47845;DHT22;33605;48.822;8.796;2023-03-01T00:15:13;3.60;29.70
47845;DHT22;33605;48.822;8.796;2023-03-01T00:17:38;3.60;29.80
47845;DHT22;33605;48.822;8.796;2023-03-01T00:20:04;3.50;29.80
47845;DHT22;33605;48.822;8.796;2023-03-01T00:22:38;3.50;29.80
47845;DHT22;33605;48.822;8.796;2023-03-01T00:25:04;3.50;30.00
47845;DHT22;33605;48.822;8.796;2023-03-01T00:27:29;3.50;30.00
47845;DHT22;33605;48.822;8.796;2023-03-01T00:29:55;3.50;30.00
47845;DHT22;33605;48.822;8.796;2023-03-01T00:32:21;3.40;30.00
47845;DHT22;33605;48.822;8.796;2023-03-01T00:34:46;3.40;30.00
47845;DHT22;33605;48.822;8.796;2023-03-01T00:37:20;3.40;30.00
47845;DHT22;33605;48.822;8.796;2023-03-01T00:39:46;3.40;30.00
47845;DHT22;33605;48.822;8.796;2023-03-01T00:42:12;3.40;30.10
47845;DHT22;33605;48.822;8.796;2023-03-01T00:44:37;3.40;30.20
47845;DHT22;33605;48.822;8.796;2023-03-01T00:47:03;3.40;30.30
47845;DHT22;33605;48.822;8.796;2023-03-01T00:49:28;3.30;30.20
47845;DHT22;33605;48.822;8.796;2023-03-01T00:51:54;3.30;30.30
47845;DHT22;33605;48.822;8.796;2023-03-01T00:54:20;3.30;30.40
47845;DHT22;33605;48.822;8.796;2023-03-01T00:56:45;3.30;30.40
47845;DHT22;33605;48.822;8.796;2023-03-01T00:59:11;3.30;30.40
47845;DHT22;33605;48.822;8.796;2023-03-01T01:01:36;3.30;30.30
47845;DHT22;33605;48.822;8.796;2023-03-01T01:04:08;3.30;30.30
47845;DHT22;33605;48.822;8.796;2023-03-01T01:06:42;3.30;30.30
47845;DHT22;33605;48.822;8.796;2023-03-01T01:09:14;3.20;30.20
47845;DHT22;33605;48.822;8.796;2023-03-01T01:11:45;3.20;30.40
47845;DHT22;33605;48.822;8.796;2023-03-01T01:14:11;3.20;30.60
47845;DHT22;33605;48.822;8.796;2023-03-01T01:16:37;3.20;30.60
47845;DHT22;33605;48.822;8.796;2023-03-01T01:19:03;3.10;30.60
47845;DHT22;33605;48.822;8.796;2023-03-01T01:21:29;3.10;30.70
47845;DHT22;33605;48.822;8.796;2023-03-01T01:23:55;3.10;30.70
47845;DHT22;33605;48.822;8.796;2023-03-01T01:26:39;3.10;30.80
47845;DHT22;33605;48.822;8.796;2023-03-01T01:29:06;3.10;30.70
47845;DHT22;33605;48.822;8.796;2023-03-01T01:31:33;3.00;30.60
47845;DHT22;33605;48.822;8.796;2023-03-01T01:34:00;3.00;30.60
47845;DHT22;33605;48.822;8.796;2023-03-01T01:36:26;3.00;30.60
47845;DHT22;33605;48.822;8.796;2023-03-01T01:38:52;3.00;30.60
47845;DHT22;33605;48.822;8.796;2023-03-01T01:41:18;3.00;30.70
47845;DHT22;33605;48.822;8.796;2023-03-01T01:43:47;3.00;30.90
47845;DHT22;33605;48.822;8.796;2023-03-01T01:46:28;2.90;30.80
47845;DHT22;33605;48.822;8.796;2023-03-01T01:49:02;2.90;30.80
47845;DHT22;33605;48.822;8.796;2023-03-01T01:51:33;2.90;30.90
47845;DHT22;33605;48.822;8.796;2023-03-01T01:54:09;2.90;31.00
47845;DHT22;33605;48.822;8.796;2023-03-01T01:56:36;2.80;30.80
47845;DHT22;33605;48.822;8.796;2023-03-01T01:59:02;2.80;30.80
47845;DHT22;33605;48.822;8.796;2023-03-01T02:01:28;2.80;30.80
47845;DHT22;33605;48.822;8.796;2023-03-01T02:03:54;2.80;30.90
47845;DHT22;33605;48.822;8.796;2023-03-01T02:06:38;2.70;30.80
47845;DHT22;33605;48.822;8.796;2023-03-01T02:09:14;2.80;31.20
47845;DHT22;33605;48.822;8.796;2023-03-01T02:11:43;2.70;31.00
47845;DHT22;33605;48.822;8.796;2023-03-01T02:14:08;2.70;31.10
47845;DHT22;33605;48.822;8.796;2023-03-01T02:16:34;2.70;31.20
47845;DHT22;33605;48.822;8.796;2023-03-01T02:19:00;2.60;31.20
47845;DHT22;33605;48.822;8.796;2023-03-01T02:21:41;2.60;31.20
47845;DHT22;33605;48.822;8.796;2023-03-01T02:24:29;2.60;31.30
47845;DHT22;33605;48.822;8.796;2023-03-01T02:26:57;2.60;31.30
47845;DHT22;33605;48.822;8.796;2023-03-01T02:29:23;2.60;31.20
47845;DHT22;33605;48.822;8.796;2023-03-01T02:31:51;2.50;31.10
47845;DHT22;33605;48.822;8.796;2023-03-01T02:34:23;2.50;31.20
47845;DHT22;33605;48.822;8.796;2023-03-01T02:37:04;2.50;31.20
47845;DHT22;33605;48.822;8.796;2023-03-01T02:39:38;2.50;31.20
47845;DHT22;33605;48.822;8.796;2023-03-01T02:42:11;2.50;31.20
47845;DHT22;33605;48.822;8.796;2023-03-01T02:44:38;2.40;31.20
47845;DHT22;33605;48.822;8.796;2023-03-01T02:47:04;2.40;31.10
47845;DHT22;33605;48.822;8.796;2023-03-01T02:49:34;2.40;31.30
47845;DHT22;33605;48.822;8.796;2023-03-01T02:52:32;2.40;31.50
47845;DHT22;33605;48.822;8.796;2023-03-01T02:57:25;2.30;31.70
47845;DHT22;33605;48.822;8.796;2023-03-01T02:59:54;2.30;31.90
47845;DHT22;33605;48.822;8.796;2023-03-01T03:02:28;2.30;32.00
47845;DHT22;33605;48.822;8.796;2023-03-01T03:07:32;2.30;32.00
47845;DHT22;33605;48.822;8.796;2023-03-01T03:09:58;2.20;31.80
47845;DHT22;33605;48.822;8.796;2023-03-01T03:12:24;2.20;31.90
47845;DHT22;33605;48.822;8.796;2023-03-01T03:14:49;2.20;31.90
47845;DHT22;33605;48.822;8.796;2023-03-01T03:17:15;2.30;32.10
47845;DHT22;33605;48.822;8.796;2023-03-01T03:19:40;2.30;32.00
47845;DHT22;33605;48.822;8.796;2023-03-01T03:22:06;2.30;32.10
47845;DHT22;33605;48.822;8.796;2023-03-01T03:24:34;2.30;32.10
47845;DHT22;33605;48.822;8.796;2023-03-01T03:27:04;2.30;32.20
47845;DHT22;33605;48.822;8.796;2023-03-01T03:29:30;2.40;32.60
47845;DHT22;33605;48.822;8.796;2023-03-01T03:31:56;2.40;32.90
47845;DHT22;33605;48.822;8.796;2023-03-01T03:34:21;2.40;32.90
47845;DHT22;33605;48.822;8.796;2023-03-01T03:36:47;2.40;33.10
47845;DHT22;33605;48.822;8.796;2023-03-01T03:39:13;2.50;33.20
47845;DHT22;33605;48.822;8.796;2023-03-01T03:41:38;2.50;33.10
47845;DHT22;33605;48.822;8.796;2023-03-01T03:44:04;2.50;33.10
47845;DHT22;33605;48.822;8.796;2023-03-01T03:46:30;2.60;33.20
47845;DHT22;33605;48.822;8.796;2023-03-01T03:48:55;2.60;33.40
47845;DHT22;33605;48.822;8.796;2023-03-01T03:51:21;2.60;33.40
47845;DHT22;33605;48.822;8.796;2023-03-01T03:53:48;2.70;33.60
47845;DHT22;33605;48.822;8.796;2023-03-01T03:56:13;2.70;33.70
47845;DHT22;33605;48.822;8.796;2023-03-01T03:58:39;2.70;33.60
47845;DHT22;33605;48.822;8.796;2023-03-01T04:01:06;2.80;33.70
47845;DHT22;33605;48.822;8.796;2023-03-01T04:03:32;2.80;33.90
47845;DHT22;33605;48.822;8.796;2023-03-01T04:06:01;2.80;34.00
47845;DHT22;33605;48.822;8.796;2023-03-01T04:08:27;2.90;34.20
47845;DHT22;33605;48.822;8.796;2023-03-01T04:10:58;2.90;34.20
47845;DHT22;33605;48.822;8.796;2023-03-01T04:13:25;2.90;34.30
47845;DHT22;33605;48.822;8.796;2023-03-01T04:15:52;2.90;34.30
47845;DHT22;33605;48.822;8.796;2023-03-01T04:18:20;2.90;34.40
47845;DHT22;33605;48.822;8.796;2023-03-01T04:20:46;2.90;34.30
47845;DHT22;33605;48.822;8.796;2023-03-01T04:23:19;2.90;34.30
47845;DHT22;33605;48.822;8.796;2023-03-01T04:25:47;3.00;34.50
47845;DHT22;33605;48.822;8.796;2023-03-01T04:28:22;2.90;34.50
47845;DHT22;33605;48.822;8.796;2023-03-01T04:30:50;3.00;34.70
47845;DHT22;33605;48.822;8.796;2023-03-01T04:33:16;3.00;34.70
47845;DHT22;33605;48.822;8.796;2023-03-01T04:35:42;3.00;34.70
47845;DHT22;33605;48.822;8.796;2023-03-01T04:38:08;3.00;34.60
47845;DHT22;33605;48.822;8.796;2023-03-01T04:40:34;3.00;34.80
47845;DHT22;33605;48.822;8.796;2023-03-01T04:43:01;3.00;34.50
47845;DHT22;33605;48.822;8.796;2023-03-01T04:45:27;3.00;34.40
47845;DHT22;33605;48.822;8.796;2023-03-01T04:47:53;3.00;34.70
47845;DHT22;33605;48.822;8.796;2023-03-01T04:50:19;3.00;34.40
47845;DHT22;33605;48.822;8.796;2023-03-01T04:52:49;3.10;34.50
47845;DHT22;33605;48.822;8.796;2023-03-01T04:55:16;3.10;34.60
47845;DHT22;33605;48.822;8.796;2023-03-01T04:57:41;3.10;34.60
47845;DHT22;33605;48.822;8.796;2023-03-01T05:00:09;3.10;34.60
47845;DHT22;33605;48.822;8.796;2023-03-01T05:02:57;3.10;34.80
47845;DHT22;33605;48.822;8.796;2023-03-01T05:05:32;3.10;34.70
47845;DHT22;33605;48.822;8.796;2023-03-01T05:07:59;3.20;34.80
47845;DHT22;33605;48.822;8.796;2023-03-01T05:10:27;3.20;34.70
47845;DHT22;33605;48.822;8.796;2023-03-01T05:12:54;3.20;34.70
47845;DHT22;33605;48.822;8.796;2023-03-01T05:15:23;3.30;34.70
47845;DHT22;33605;48.822;8.796;2023-03-01T05:17:51;3.30;34.70
47845;DHT22;33605;48.822;8.796;2023-03-01T05:20:17;3.30;34.70
47845;DHT22;33605;48.822;8.796;2023-03-01T05:22:43;3.30;34.60
47845;DHT22;33605;48.822;8.796;2023-03-01T05:25:09;3.40;34.70
47845;DHT22;33605;48.822;8.796;2023-03-01T05:27:35;3.40;34.70
47845;DHT22;33605;48.822;8.796;2023-03-01T05:30:01;3.40;34.70
47845;DHT22;33605;48.822;8.796;2023-03-01T05:32:48;3.40;34.70
47845;DHT22;33605;48.822;8.796;2023-03-01T05:35:16;3.40;34.70
47845;DHT22;33605;48.822;8.796;2023-03-01T05:37:43;3.40;34.60
47845;DHT22;33605;48.822;8.796;2023-03-01T05:40:17;3.50;34.60
47845;DHT22;33605;48.822;8.796;2023-03-01T05:42:48;3.50;34.60
47845;DHT22;33605;48.822;8.796;2023-03-01T05:45:15;3.50;34.50
47845;DHT22;33605;48.822;8.796;2023-03-01T05:47:43;3.50;34.50
47845;DHT22;33605;48.822;8.796;2023-03-01T05:50:29;3.50;34.50
47845;DHT22;33605;48.822;8.796;2023-03-01T05:53:23;3.50;34.60
47845;DHT22;33605;48.822;8.796;2023-03-01T05:55:48;3.50;34.70
47845;DHT22;33605;48.822;8.796;2023-03-01T05:58:17;3.60;34.90
47845;DHT22;33605;48.822;8.796;2023-03-01T06:00:44;3.60;35.00
47845;DHT22;33605;48.822;8.796;2023-03-01T06:03:12;3.60;35.10
47845;DHT22;33605;48.822;8.796;2023-03-01T06:05:38;3.60;35.10
47845;DHT22;33605;48.822;8.796;2023-03-01T06:08:04;3.60;35.00
47845;DHT22;33605;48.822;8.796;2023-03-01T06:10:30;3.70;35.00
47845;DHT22;33605;48.822;8.796;2023-03-01T06:12:56;3.70;35.00
47845;DHT22;33605;48.822;8.796;2023-03-01T06:15:23;3.70;35.00
47845;DHT22;33605;48.822;8.796;2023-03-01T06:17:49;3.70;35.00
47845;DHT22;33605;48.822;8.796;2023-03-01T06:20:22;3.70;35.00
47845;DHT22;33605;48.822;8.796;2023-03-01T06:22:49;3.70;35.00
47845;DHT22;33605;48.822;8.796;2023-03-01T06:25:17;3.70;35.50
47845;DHT22;33605;48.822;8.796;2023-03-01T06:27:43;3.70;34.90
47845;DHT22;33605;48.822;8.796;2023-03-01T06:30:10;3.70;34.80
47845;DHT22;33605;48.822;8.796;2023-03-01T06:32:37;3.80;34.90
47845;DHT22;33605;48.822;8.796;2023-03-01T06:35:04;3.80;34.90
47845;DHT22;33605;48.822;8.796;2023-03-01T06:37:30;3.80;34.70
47845;DHT22;33605;48.822;8.796;2023-03-01T06:39:55;3.80;34.60
47845;DHT22;33605;48.822;8.796;2023-03-01T06:42:21;3.70;34.60
47845;DHT22;33605;48.822;8.796;2023-03-01T06:44:46;3.70;34.60
47845;DHT22;33605;48.822;8.796;2023-03-01T06:47:12;3.70;34.50
47845;DHT22;33605;48.822;8.796;2023-03-01T06:49:38;3.70;34.60
47845;DHT22;33605;48.822;8.796;2023-03-01T06:52:04;3.70;34.60
47845;DHT22;33605;48.822;8.796;2023-03-01T06:54:29;3.70;34.60
47845;DHT22;33605;48.822;8.796;2023-03-01T06:56:55;3.70;34.60
47845;DHT22;33605;48.822;8.796;2023-03-01T06:59:20;3.70;34.60
47845;DHT22;33605;48.822;8.796;2023-03-01T07:01:46;3.70;34.80
47845;DHT22;33605;48.822;8.796;2023-03-01T07:04:12;3.70;34.80
47845;DHT22;33605;48.822;8.796;2023-03-01T07:06:38;3.70;34.90
47845;DHT22;33605;48.822;8.796;2023-03-01T07:09:04;3.70;35.00
47845;DHT22;33605;48.822;8.796;2023-03-01T07:11:30;3.70;35.00
47845;DHT22;33605;48.822;8.796;2023-03-01T07:13:55;3.70;35.00
47845;DHT22;33605;48.822;8.796;2023-03-01T07:16:21;3.70;35.00
47845;DHT22;33605;48.822;8.796;2023-03-01T07:18:47;3.70;35.00
47845;DHT22;33605;48.822;8.796;2023-03-01T07:21:14;3.80;35.00
47845;DHT22;33605;48.822;8.796;2023-03-01T07:23:40;3.80;34.90
47845;DHT22;33605;48.822;8.796;2023-03-01T07:26:06;3.80;34.80
47845;DHT22;33605;48.822;8.796;2023-03-01T07:28:32;3.80;34.80
47845;DHT22;33605;48.822;8.796;2023-03-01T07:31:07;3.80;34.90
47845;DHT22;33605;48.822;8.796;2023-03-01T07:33:33;3.90;35.40
47845;DHT22;33605;48.822;8.796;2023-03-01T07:35:59;3.90;35.50
47845;DHT22;33605;48.822;8.796;2023-03-01T07:38:26;4.00;35.50
47845;DHT22;33605;48.822;8.796;2023-03-01T07:40:52;4.10;35.50
47845;DHT22;33605;48.822;8.796;2023-03-01T07:43:18;4.20;35.60
47845;DHT22;33605;48.822;8.796;2023-03-01T07:45:44;4.30;35.50
47845;DHT22;33605;48.822;8.796;2023-03-01T07:48:10;4.40;35.50
47845;DHT22;33605;48.822;8.796;2023-03-01T07:50:35;4.40;35.40
47845;DHT22;33605;48.822;8.796;2023-03-01T07:53:01;4.50;35.40
47845;DHT22;33605;48.822;8.796;2023-03-01T07:55:28;4.60;35.30
47845;DHT22;33605;48.822;8.796;2023-03-01T07:57:53;4.70;35.20
47845;DHT22;33605;48.822;8.796;2023-03-01T08:00:19;4.70;35.00
47845;DHT22;33605;48.822;8.796;2023-03-01T08:02:45;4.80;34.90
47845;DHT22;33605;48.822;8.796;2023-03-01T08:05:11;4.80;34.70
47845;DHT22;33605;48.822;8.796;2023-03-01T08:07:37;4.90;34.60
47845;DHT22;33605;48.822;8.796;2023-03-01T08:10:03;5.00;34.60
47845;DHT22;33605;48.822;8.796;2023-03-01T08:12:28;5.00;34.50
47845;DHT22;33605;48.822;8.796;2023-03-01T08:14:54;5.10;34.50
47845;DHT22;33605;48.822;8.796;2023-03-01T08:17:20;5.10;34.40
47845;DHT22;33605;48.822;8.796;2023-03-01T08:19:46;5.10;34.40
47845;DHT22;33605;48.822;8.796;2023-03-01T08:22:12;5.30;34.60
47845;DHT22;33605;48.822;8.796;2023-03-01T08:24:38;5.20;34.60
47845;DHT22;33605;48.822;8.796;2023-03-01T08:27:04;5.30;34.60
47845;DHT22;33605;48.822;8.796;2023-03-01T08:29:33;5.30;34.30
47845;DHT22;33605;48.822;8.796;2023-03-01T08:31:59;5.50;34.40
47845;DHT22;33605;48.822;8.796;2023-03-01T08:34:25;5.60;34.40
47845;DHT22;33605;48.822;8.796;2023-03-01T08:36:51;5.60;34.30
47845;DHT22;33605;48.822;8.796;2023-03-01T08:39:19;5.70;34.30
47845;DHT22;33605;48.822;8.796;2023-03-01T08:41:45;5.80;34.20
47845;DHT22;33605;48.822;8.796;2023-03-01T08:44:12;5.90;34.20
47845;DHT22;33605;48.822;8.796;2023-03-01T08:46:40;6.00;34.10
47845;DHT22;33605;48.822;8.796;2023-03-01T08:49:13;6.10;34.00
47845;DHT22;33605;48.822;8.796;2023-03-01T08:51:39;6.20;33.90
47845;DHT22;33605;48.822;8.796;2023-03-01T08:54:06;6.30;33.80
47845;DHT22;33605;48.822;8.796;2023-03-01T08:56:33;6.40;33.80
47845;DHT22;33605;48.822;8.796;2023-03-01T08:58:59;6.40;33.70
47845;DHT22;33605;48.822;8.796;2023-03-01T09:01:25;6.50;33.60
47845;DHT22;33605;48.822;8.796;2023-03-01T09:03:50;6.50;33.30
47845;DHT22;33605;48.822;8.796;2023-03-01T09:06:16;6.60;33.40
47845;DHT22;33605;48.822;8.796;2023-03-01T09:08:46;6.70;33.50
47845;DHT22;33605;48.822;8.796;2023-03-01T09:11:14;6.80;33.50
47845;DHT22;33605;48.822;8.796;2023-03-01T09:13:41;6.90;33.30
47845;DHT22;33605;48.822;8.796;2023-03-01T09:16:08;7.00;33.00
47845;DHT22;33605;48.822;8.796;2023-03-01T09:18:34;7.10;32.80
47845;DHT22;33605;48.822;8.796;2023-03-01T09:23:36;7.20;32.80
47845;DHT22;33605;48.822;8.796;2023-03-01T09:26:04;7.40;32.60
47845;DHT22;33605;48.822;8.796;2023-03-01T09:28:30;7.50;32.30
47845;DHT22;33605;48.822;8.796;2023-03-01T16:26:46;7.60;32.40
47845;DHT22;33605;48.822;8.796;2023-03-01T16:29:11;21.50;19.10
47845;DHT22;33605;48.822;8.796;2023-03-01T16:31:37;20.80;18.90
47845;DHT22;33605;48.822;8.796;2023-03-01T16:34:03;20.40;19.00
47845;DHT22;33605;48.822;8.796;2023-03-01T16:36:28;19.90;19.10
47845;DHT22;33605;48.822;8.796;2023-03-01T16:38:55;19.50;19.20
47845;DHT22;33605;48.822;8.796;2023-03-01T16:41:23;19.00;19.30
47845;DHT22;33605;48.822;8.796;2023-03-01T16:43:49;18.60;19.40
47845;DHT22;33605;48.822;8.796;2023-03-01T16:46:17;18.20;19.60
47845;DHT22;33605;48.822;8.796;2023-03-01T16:48:43;17.70;19.60
47845;DHT22;33605;48.822;8.796;2023-03-01T16:51:09;17.30;19.70
47845;DHT22;33605;48.822;8.796;2023-03-01T16:53:35;16.90;19.90
47845;DHT22;33605;48.822;8.796;2023-03-01T16:56:03;16.50;19.90
47845;DHT22;33605;48.822;8.796;2023-03-01T16:58:29;16.20;20.20
47845;DHT22;33605;48.822;8.796;2023-03-01T17:00:55;18.50;22.50
47845;DHT22;33605;48.822;8.796;2023-03-01T17:03:23;15.50;20.30
47845;DHT22;33605;48.822;8.796;2023-03-01T17:05:49;15.20;20.50
47845;DHT22;33605;48.822;8.796;2023-03-01T17:08:15;14.90;20.60
47845;DHT22;33605;48.822;8.796;2023-03-01T17:10:41;14.60;20.80
47845;DHT22;33605;48.822;8.796;2023-03-01T17:13:08;14.30;20.90
47845;DHT22;33605;48.822;8.796;2023-03-01T17:15:35;14.10;21.10
47845;DHT22;33605;48.822;8.796;2023-03-01T17:18:01;13.90;21.20
47845;DHT22;33605;48.822;8.796;2023-03-01T17:20:26;13.60;21.20
47845;DHT22;33605;48.822;8.796;2023-03-01T17:22:52;13.40;21.40
47845;DHT22;33605;48.822;8.796;2023-03-01T17:25:18;13.20;21.40
47845;DHT22;33605;48.822;8.796;2023-03-01T17:27:44;13.00;21.50
47845;DHT22;33605;48.822;8.796;2023-03-01T17:30:11;12.90;21.60
47845;DHT22;33605;48.822;8.796;2023-03-01T17:32:37;12.70;21.70
47845;DHT22;33605;48.822;8.796;2023-03-01T17:35:03;12.60;21.90
47845;DHT22;33605;48.822;8.796;2023-03-01T17:37:29;12.40;22.00
47845;DHT22;33605;48.822;8.796;2023-03-01T17:39:55;12.30;22.00
47845;DHT22;33605;48.822;8.796;2023-03-01T17:42:20;12.10;22.00
47845;DHT22;33605;48.822;8.796;2023-03-01T17:44:46;11.90;22.10
47845;DHT22;33605;48.822;8.796;2023-03-01T17:47:12;11.80;22.30
47845;DHT22;33605;48.822;8.796;2023-03-01T17:49:37;11.70;22.40
47845;DHT22;33605;48.822;8.796;2023-03-01T17:52:03;11.60;22.50
47845;DHT22;33605;48.822;8.796;2023-03-01T17:54:29;11.40;22.50
47845;DHT22;33605;48.822;8.796;2023-03-01T17:56:55;11.30;22.60
47845;DHT22;33605;48.822;8.796;2023-03-01T17:59:23;11.20;22.70
47845;DHT22;33605;48.822;8.796;2023-03-01T18:01:49;11.00;22.70
47845;DHT22;33605;48.822;8.796;2023-03-01T18:04:14;10.90;22.70
47845;DHT22;33605;48.822;8.796;2023-03-01T18:06:42;10.80;22.80
47845;DHT22;33605;48.822;8.796;2023-03-01T18:09:09;10.80;22.90
47845;DHT22;33605;48.822;8.796;2023-03-01T18:11:36;10.60;22.80
47845;DHT22;33605;48.822;8.796;2023-03-01T18:14:02;10.60;22.90
47845;DHT22;33605;48.822;8.796;2023-03-01T18:16:28;10.50;23.10
47845;DHT22;33605;48.822;8.796;2023-03-01T18:18:56;10.40;23.20
47845;DHT22;33605;48.822;8.796;2023-03-01T18:21:22;10.30;23.20
47845;DHT22;33605;48.822;8.796;2023-03-01T18:23:47;10.20;23.20
47845;DHT22;33605;48.822;8.796;2023-03-01T18:26:14;10.10;23.10
47845;DHT22;33605;48.822;8.796;2023-03-01T18:28:43;10.00;23.20
47845;DHT22;33605;48.822;8.796;2023-03-01T18:31:12;10.00;23.40
47845;DHT22;33605;48.822;8.796;2023-03-01T18:33:41;9.90;24.30
47845;DHT22;33605;48.822;8.796;2023-03-01T18:36:16;9.80;24.40
47845;DHT22;33605;48.822;8.796;2023-03-01T18:38:43;9.70;24.80
47845;DHT22;33605;48.822;8.796;2023-03-01T18:41:08;9.60;25.10
47845;DHT22;33605;48.822;8.796;2023-03-01T18:43:34;9.50;25.10
47845;DHT22;33605;48.822;8.796;2023-03-01T18:46:03;9.40;25.10
47845;DHT22;33605;48.822;8.796;2023-03-01T18:48:30;9.30;25.10
47845;DHT22;33605;48.822;8.796;2023-03-01T18:50:56;9.20;25.10
47845;DHT22;33605;48.822;8.796;2023-03-01T18:53:21;9.10;25.20
47845;DHT22;33605;48.822;8.796;2023-03-01T18:55:47;9.00;25.50
47845;DHT22;33605;48.822;8.796;2023-03-01T18:58:13;8.90;25.60
47845;DHT22;33605;48.822;8.796;2023-03-01T19:00:38;8.80;25.50
47845;DHT22;33605;48.822;8.796;2023-03-01T19:03:04;8.70;25.50
47845;DHT22;33605;48.822;8.796;2023-03-01T19:05:30;8.70;25.60
47845;DHT22;33605;48.822;8.796;2023-03-01T19:07:56;8.60;25.60
47845;DHT22;33605;48.822;8.796;2023-03-01T19:10:23;8.50;25.80
47845;DHT22;33605;48.822;8.796;2023-03-01T19:12:49;8.40;25.80
47845;DHT22;33605;48.822;8.796;2023-03-01T19:15:15;8.40;25.90
47845;DHT22;33605;48.822;8.796;2023-03-01T19:17:41;8.30;26.00
47845;DHT22;33605;48.822;8.796;2023-03-01T19:20:08;8.20;26.00
47845;DHT22;33605;48.822;8.796;2023-03-01T19:22:34;8.10;26.10
47845;DHT22;33605;48.822;8.796;2023-03-01T19:24:59;8.10;26.30
47845;DHT22;33605;48.822;8.796;2023-03-01T19:27:25;8.00;26.40
47845;DHT22;33605;48.822;8.796;2023-03-01T19:29:51;7.90;26.40
47845;DHT22;33605;48.822;8.796;2023-03-01T19:32:16;7.90;26.60
47845;DHT22;33605;48.822;8.796;2023-03-01T19:34:42;7.80;26.60
47845;DHT22;33605;48.822;8.796;2023-03-01T19:37:08;7.80;26.60
47845;DHT22;33605;48.822;8.796;2023-03-01T19:39:34;7.70;26.70
47845;DHT22;33605;48.822;8.796;2023-03-01T19:42:03;7.60;26.60
47845;DHT22;33605;48.822;8.796;2023-03-01T19:44:28;7.60;26.70
47845;DHT22;33605;48.822;8.796;2023-03-01T19:46:55;7.50;26.80
47845;DHT22;33605;48.822;8.796;2023-03-01T19:49:22;7.50;26.80
47845;DHT22;33605;48.822;8.796;2023-03-01T19:51:48;7.40;26.80
47845;DHT22;33605;48.822;8.796;2023-03-01T19:54:13;7.40;26.90
47845;DHT22;33605;48.822;8.796;2023-03-01T19:56:45;7.30;26.80
47845;DHT22;33605;48.822;8.796;2023-03-01T19:59:11;7.30;26.90
47845;DHT22;33605;48.822;8.796;2023-03-01T20:01:37;7.20;27.00
47845;DHT22;33605;48.822;8.796;2023-03-01T20:04:07;7.20;27.10
47845;DHT22;33605;48.822;8.796;2023-03-01T20:06:34;7.10;27.10
47845;DHT22;33605;48.822;8.796;2023-03-01T20:09:05;7.10;27.10
47845;DHT22;33605;48.822;8.796;2023-03-01T20:11:31;7.00;27.10
47845;DHT22;33605;48.822;8.796;2023-03-01T20:13:57;7.00;27.30
47845;DHT22;33605;48.822;8.796;2023-03-01T20:16:23;7.00;27.40
47845;DHT22;33605;48.822;8.796;2023-03-01T20:18:51;6.90;27.40
47845;DHT22;33605;48.822;8.796;2023-03-01T20:21:17;6.90;27.40
47845;DHT22;33605;48.822;8.796;2023-03-01T20:23:47;6.80;27.50
47845;DHT22;33605;48.822;8.796;2023-03-01T20:26:13;6.80;27.60
47845;DHT22;33605;48.822;8.796;2023-03-01T20:28:44;6.80;27.60
47845;DHT22;33605;48.822;8.796;2023-03-01T20:31:11;6.70;27.50
47845;DHT22;33605;48.822;8.796;2023-03-01T20:33:38;6.70;27.60
47845;DHT22;33605;48.822;8.796;2023-03-01T20:36:05;6.70;27.90
47845;DHT22;33605;48.822;8.796;2023-03-01T20:38:31;6.70;28.10
47845;DHT22;33605;48.822;8.796;2023-03-01T20:40:59;6.70;28.10
47845;DHT22;33605;48.822;8.796;2023-03-01T20:43:25;6.60;28.00
47845;DHT22;33605;48.822;8.796;2023-03-01T20:45:51;6.60;28.00
47845;DHT22;33605;48.822;8.796;2023-03-01T20:48:17;6.60;28.00
47845;DHT22;33605;48.822;8.796;2023-03-01T20:50:45;6.60;28.10
47845;DHT22;33605;48.822;8.796;2023-03-01T20:53:11;6.60;28.30
47845;DHT22;33605;48.822;8.796;2023-03-01T20:55:37;6.60;28.40
47845;DHT22;33605;48.822;8.796;2023-03-01T20:58:02;6.60;28.60
47845;DHT22;33605;48.822;8.796;2023-03-01T21:00:28;6.60;28.60
47845;DHT22;33605;48.822;8.796;2023-03-01T21:02:54;6.60;28.60
47845;DHT22;33605;48.822;8.796;2023-03-01T21:05:20;6.60;28.50
47845;DHT22;33605;48.822;8.796;2023-03-01T21:07:48;6.50;28.40
47845;DHT22;33605;48.822;8.796;2023-03-01T21:10:14;6.60;28.60
47845;DHT22;33605;48.822;8.796;2023-03-01T21:12:40;6.50;28.60
47845;DHT22;33605;48.822;8.796;2023-03-01T21:15:08;6.50;28.60
47845;DHT22;33605;48.822;8.796;2023-03-01T21:17:34;6.50;28.60
47845;DHT22;33605;48.822;8.796;2023-03-01T21:20:00;6.50;28.80
47845;DHT22;33605;48.822;8.796;2023-03-01T21:22:26;6.50;28.80
47845;DHT22;33605;48.822;8.796;2023-03-01T21:24:53;6.50;28.80
47845;DHT22;33605;48.822;8.796;2023-03-01T21:27:19;6.50;28.80
47845;DHT22;33605;48.822;8.796;2023-03-01T21:29:45;6.50;28.80
47845;DHT22;33605;48.822;8.796;2023-03-01T21:32:12;6.50;28.80
47845;DHT22;33605;48.822;8.796;2023-03-01T21:34:39;6.50;28.80
47845;DHT22;33605;48.822;8.796;2023-03-01T21:37:06;6.40;28.80
47845;DHT22;33605;48.822;8.796;2023-03-01T21:39:32;6.50;28.90
47845;DHT22;33605;48.822;8.796;2023-03-01T21:42:00;6.40;28.90
47845;DHT22;33605;48.822;8.796;2023-03-01T21:44:27;6.40;28.90
47845;DHT22;33605;48.822;8.796;2023-03-01T21:46:59;6.40;29.00
47845;DHT22;33605;48.822;8.796;2023-03-01T21:49:25;6.40;29.10
47845;DHT22;33605;48.822;8.796;2023-03-01T21:51:51;6.30;29.10
47845;DHT22;33605;48.822;8.796;2023-03-01T21:54:17;6.40;29.20
47845;DHT22;33605;48.822;8.796;2023-03-01T21:56:45;6.30;29.10
47845;DHT22;33605;48.822;8.796;2023-03-01T21:59:17;6.30;29.10
47845;DHT22;33605;48.822;8.796;2023-03-01T22:01:47;6.30;29.10
47845;DHT22;33605;48.822;8.796;2023-03-01T22:04:14;6.30;29.00
47845;DHT22;33605;48.822;8.796;2023-03-01T22:06:42;6.30;29.10
47845;DHT22;33605;48.822;8.796;2023-03-01T22:09:14;6.30;29.20
47845;DHT22;33605;48.822;8.796;2023-03-01T22:11:45;6.20;29.20
47845;DHT22;33605;48.822;8.796;2023-03-01T22:14:12;6.20;29.30
47845;DHT22;33605;48.822;8.796;2023-03-01T22:16:38;6.20;29.50
47845;DHT22;33605;48.822;8.796;2023-03-01T22:19:05;6.20;29.60
47845;DHT22;33605;48.822;8.796;2023-03-01T22:21:31;6.10;29.50
47845;DHT22;33605;48.822;8.796;2023-03-01T22:23:57;6.10;30.00
47845;DHT22;33605;48.822;8.796;2023-03-01T22:26:27;6.10;29.60
47845;DHT22;33605;48.822;8.796;2023-03-01T22:28:54;6.00;29.60
47845;DHT22;33605;48.822;8.796;2023-03-01T22:31:21;6.00;29.70
47845;DHT22;33605;48.822;8.796;2023-03-01T22:33:47;6.00;29.80
47845;DHT22;33605;48.822;8.796;2023-03-01T22:36:13;6.00;29.80
47845;DHT22;33605;48.822;8.796;2023-03-01T22:38:39;5.90;29.90
47845;DHT22;33605;48.822;8.796;2023-03-01T22:41:06;5.90;30.40
47845;DHT22;33605;48.822;8.796;2023-03-01T22:43:32;5.90;29.90
47845;DHT22;33605;48.822;8.796;2023-03-01T22:45:58;5.90;29.90
47845;DHT22;33605;48.822;8.796;2023-03-01T22:48:25;5.80;29.90